Time;durP1;ratioP1;P1;durP2;ratioP2;P2;SDS_P1;SDS_P2;PMS_P1;PMS_P2;Temp;Humidity;BMP_temperature;BMP_pressure;BME280_temperature;BME280_humidity;BME280_pressure;Samples;Min_cycle;Max_cycle;Signal;HPM_P1;HPM_P2
2021/07/03 00:07:49;;;;;;;8.17;4.90;;;14.50;99.90;;;;;;21047342;28;20032;-77
2021/07/03 00:17:52;;;;;;;9.40;4.80;;;14.20;99.90;;;;;;21095141;28;20331;-78
2021/07/03 00:27:53;;;;;;;9.38;4.80;;;14.00;99.90;;;;;;21091400;28;20620;-78
2021/07/03 00:37:54;;;;;;;7.00;4.57;;;13.70;99.90;;;;;;21074243;28;20462;-79
2021/07/03 00:47:57;;;;;;;9.82;5.18;;;13.60;99.90;;;;;;21095374;28;20040;-80
2021/07/03 00:58:02;;;;;;;7.43;4.90;;;13.80;99.90;;;;;;21077327;28;20040;-80
2021/07/03 01:08:07;;;;;;;8.88;5.30;;;14.20;99.90;;;;;;21095766;28;20040;-79
2021/07/03 01:18:10;;;;;;;7.90;4.93;;;14.40;99.90;;;;;;21076179;28;20032;-79
2021/07/03 01:28:14;;;;;;;12.60;5.35;;;14.40;99.90;;;;;;21077827;28;20032;-79
2021/07/03 01:38:23;;;;;;;12.18;5.80;;;14.20;99.90;;;;;;21089505;28;20031;-80
2021/07/03 01:48:31;;;;;;;10.38;5.00;;;13.80;99.90;;;;;;21090280;28;20028;-79
2021/07/03 01:58:36;;;;;;;5.57;4.25;;;13.80;99.90;;;;;;21091698;28;20059;-79
2021/07/03 02:08:51;;;;;;;8.70;5.40;;;13.80;99.90;;;;;;21091015;28;20109;-80
2021/07/03 02:18:53;;;;;;;8.23;4.68;;;13.80;99.90;;;;;;21073610;28;20120;-79
2021/07/03 02:29:00;;;;;;;9.18;5.18;;;13.90;99.90;;;;;;21087786;28;20437;-80
2021/07/03 02:39:06;;;;;;;9.70;6.28;;;13.90;99.90;;;;;;21106671;28;20031;-80
2021/07/03 02:49:20;;;;;;;10.10;5.93;;;13.80;99.90;;;;;;21087027;28;20032;-80
2021/07/03 02:59:21;;;;;;;8.20;5.43;;;13.70;99.90;;;;;;21087531;28;20114;-80
2021/07/03 03:09:22;;;;;;;14.83;5.67;;;13.70;99.90;;;;;;21105980;28;20032;-79
2021/07/03 03:19:25;;;;;;;9.82;6.03;;;13.50;99.90;;;;;;21072710;28;20028;-80
2021/07/03 03:29:26;;;;;;;10.10;6.30;;;13.50;99.90;;;;;;21088068;28;20028;-80
2021/07/03 03:39:29;;;;;;;12.40;7.30;;;13.60;99.90;;;;;;21097023;28;20028;-79
2021/07/03 03:49:31;;;;;;;13.47;7.03;;;13.70;99.90;;;;;;21105841;28;20028;-80
2021/07/03 03:59:37;;;;;;;12.32;7.00;;;13.70;99.90;;;;;;21104767;28;20039;-80
2021/07/03 04:09:39;;;;;;;8.20;5.20;;;13.70;99.90;;;;;;21086230;28;20043;-80
2021/07/03 04:19:40;;;;;;;13.20;6.07;;;13.90;99.90;;;;;;21119526;28;20054;-80
2021/07/03 04:29:41;;;;;;;10.07;5.70;;;14.00;99.90;;;;;;21119654;28;20028;-80
2021/07/03 04:39:42;;;;;;;7.87;5.07;;;14.20;99.90;;;;;;21100545;28;20068;-79
2021/07/03 04:49:43;;;;;;;9.23;5.87;;;14.30;99.90;;;;;;21117924;28;20028;-80
2021/07/03 04:59:44;;;;;;;8.00;5.37;;;14.60;99.90;;;;;;21116998;28;20031;-80
2021/07/03 05:09:47;;;;;;;12.68;7.75;;;14.70;99.90;;;;;;21074546;22;20139;-77
2021/07/03 05:19:47;;;;;;;13.43;7.27;;;14.50;99.90;;;;;;20999197;28;20052;-77
2021/07/03 05:29:48;;;;;;;16.03;7.37;;;14.40;99.90;;;;;;20998388;28;20165;-77
2021/07/03 05:39:49;;;;;;;8.77;6.03;;;14.70;99.90;;;;;;20997639;28;20025;-77
2021/07/03 05:49:50;;;;;;;12.13;7.33;;;15.40;99.90;;;;;;20978926;28;20111;-76
2021/07/03 05:59:52;;;;;;;9.83;6.07;;;15.70;99.90;;;;;;20977046;28;20490;-77
2021/07/03 06:09:53;;;;;;;10.43;5.90;;;16.50;99.90;;;;;;20994837;28;20116;-77
2021/07/03 06:19:54;;;;;;;11.03;6.97;;;17.60;99.90;;;;;;20976218;28;20070;-77
2021/07/03 06:29:54;;;;;;;8.83;5.80;;;17.90;99.90;;;;;;20975684;28;20103;-77
2021/07/03 06:39:55;;;;;;;8.97;5.73;;;17.70;99.90;;;;;;20992566;28;20036;-77
2021/07/03 06:49:56;;;;;;;9.13;6.40;;;18.10;99.90;;;;;;20992147;28;20115;-77
2021/07/03 06:59:57;;;;;;;11.03;5.83;;;18.70;99.90;;;;;;20991525;28;20035;-77
2021/07/03 07:09:58;;;;;;;11.77;6.40;;;18.60;99.90;;;;;;20990871;28;20435;-77
2021/07/03 07:19:59;;;;;;;8.80;5.37;;;19.50;99.90;;;;;;20990877;28;20025;-77
2021/07/03 07:30:00;;;;;;;8.13;5.10;;;20.10;99.90;;;;;;20972349;28;20040;-77
2021/07/03 07:40:02;;;;;;;7.65;4.72;;;21.10;99.90;;;;;;20989594;28;20082;-77
2021/07/03 07:50:05;;;;;;;8.07;4.33;;;21.90;99.90;;;;;;20989611;28;20456;-77
2021/07/03 08:00:06;;;;;;;6.65;4.38;;;22.80;99.90;;;;;;20988981;28;20081;-77
2021/07/03 08:10:13;;;;;;;7.95;5.13;;;22.40;99.90;;;;;;20989056;28;20045;-77
2021/07/03 08:20:18;;;;;;;6.13;4.55;;;23.50;99.90;;;;;;20990703;28;20068;-78
2021/07/03 08:30:20;;;;;;;5.45;4.03;;;24.20;99.90;;;;;;20997192;28;20024;-78
2021/07/03 08:40:21;;;;;;;7.70;4.57;;;24.10;99.90;;;;;;20992841;28;20028;-78
2021/07/03 08:50:22;;;;;;;;;;;24.00;99.90;;;;;;21000546;28;20504;-77
2021/07/03 09:00:31;;;;;;;8.95;4.43;;;24.20;99.90;;;;;;20981249;28;19916;-78
2021/07/03 09:10:34;;;;;;;9.50;5.15;;;25.20;99.90;;;;;;20998938;28;20418;-78
2021/07/03 09:20:47;;;;;;;8.55;4.43;;;24.40;99.90;;;;;;20998710;28;20060;-77
2021/07/03 09:30:51;;;;;;;7.10;4.20;;;24.60;99.90;;;;;;20999741;28;20123;-78
2021/07/03 09:40:52;;;;;;;7.57;5.13;;;26.10;99.90;;;;;;20981604;28;20036;-78
2021/07/03 09:50:53;;;;;;;6.43;4.38;;;25.70;99.90;;;;;;20978006;28;20053;-78
2021/07/03 10:00:54;;;;;;;5.60;4.28;;;26.00;99.90;;;;;;20975705;28;20056;-76
2021/07/03 10:10:59;;;;;;;7.10;4.30;;;27.20;99.90;;;;;;20957633;28;20131;-75
2021/07/03 10:21:16;;;;;;;4.82;3.53;;;27.30;99.90;;;;;;20956046;28;20043;-76
2021/07/03 10:31:17;;;;;;;13.02;4.70;;;26.70;99.90;;;;;;20973914;28;20056;-75
2021/07/03 10:41:22;;;;;;;7.93;3.92;;;27.60;99.90;;;;;;20954801;28;20395;-76
2021/07/03 10:51:38;;;;;;;6.20;3.83;;;26.40;99.90;;;;;;20970623;28;20051;-75
2021/07/03 11:01:39;;;;;;;4.85;3.90;;;26.50;99.90;;;;;;20971137;28;20037;-76
2021/07/03 11:11:40;;;;;;;6.28;3.50;;;27.50;99.90;;;;;;20997437;22;20048;-77
2021/07/03 11:21:41;;;;;;;4.80;3.67;;;28.20;99.90;;;;;;20971867;28;20089;-78
2021/07/03 11:31:42;;;;;;;4.75;3.63;;;27.70;99.90;;;;;;20971003;28;20044;-78
2021/07/03 11:41:44;;;;;;;7.05;4.03;;;27.70;99.90;;;;;;20971147;28;20451;-78
2021/07/03 11:51:45;;;;;;;4.97;3.03;;;27.40;99.90;;;;;;20970026;28;20032;-78
2021/07/03 12:02:08;;;;;;;4.85;3.60;;;28.20;99.90;;;;;;20957262;28;20574;-80
2021/07/03 12:12:09;;;;;;;5.70;4.47;;;28.00;99.90;;;;;;20990487;28;20139;-79
2021/07/03 12:22:10;;;;;;;6.15;5.00;;;29.10;99.90;;;;;;20988935;28;20127;-80
2021/07/03 12:32:13;;;;;;;5.32;4.05;;;28.00;99.90;;;;;;20986495;28;20086;-78
2021/07/03 12:42:16;;;;;;;7.18;4.70;;;28.60;99.90;;;;;;20963446;28;20047;-78
2021/07/03 12:52:17;;;;;;;31.60;14.57;;;27.40;99.90;;;;;;20982299;28;20106;-80
2021/07/03 13:02:18;;;;;;;3.78;2.97;;;27.50;99.90;;;;;;20959976;28;20588;-78
2021/07/03 13:12:19;;;;;;;8.30;4.70;;;26.80;99.90;;;;;;20962270;28;20135;-78
2021/07/03 13:22:20;;;;;;;5.25;3.15;;;26.40;99.90;;;;;;20961815;28;20532;-78
2021/07/03 13:32:20;;;;;;;4.07;2.97;;;26.60;99.90;;;;;;20979053;28;20111;-79
2021/07/03 13:42:23;;;;;;;4.70;3.35;;;26.20;99.90;;;;;;20977742;28;20027;-78
2021/07/03 13:52:24;;;;;;;6.20;3.20;;;25.80;99.90;;;;;;20955931;28;20519;-78
2021/07/03 14:02:25;;;;;;;5.63;3.90;;;26.10;99.90;;;;;;20955957;28;20037;-78
2021/07/03 14:12:25;;;;;;;15.35;4.88;;;25.70;99.90;;;;;;20972473;28;20040;-78
2021/07/03 14:22:26;;;;;;;;;;;25.40;99.90;;;;;;20972354;28;20024;-81
2021/07/03 14:32:27;;;;;;;19.10;8.80;;;25.30;99.90;;;;;;20971931;28;19912;-79
2021/07/03 14:42:28;;;;;;;;;;;24.40;99.90;;;;;;20953433;28;20040;-80
2021/07/03 14:52:29;;;;;;;7.80;5.50;;;22.30;99.90;;;;;;20973486;28;19920;-79
2021/07/03 15:02:30;;;;;;;11.07;4.80;;;20.80;99.90;;;;;;20975022;28;20723;-79
2021/07/03 15:12:31;;;;;;;6.30;4.57;;;19.90;99.90;;;;;;20980467;28;20037;-81
2021/07/03 15:22:32;;;;;;;7.60;2.83;;;19.60;99.90;;;;;;20960505;28;20067;-78
2021/07/03 15:32:37;;;;;;;5.90;2.80;;;20.00;99.90;;;;;;20981550;28;20033;-79
2021/07/03 15:42:39;;;;;;;7.13;4.10;;;20.20;99.90;;;;;;20993386;28;20028;-80
2021/07/03 15:52:41;;;;;;;6.32;4.10;;;19.40;99.90;;;;;;20976704;28;20033;-80
2021/07/03 16:02:43;;;;;;;10.57;4.65;;;18.70;99.90;;;;;;20972160;28;20519;-79
2021/07/03 16:12:44;;;;;;;6.60;4.63;;;18.60;99.90;;;;;;20985307;28;20142;-79
2021/07/03 16:22:45;;;;;;;7.00;4.80;;;18.40;99.90;;;;;;20987847;28;20032;-79
2021/07/03 16:32:47;;;;;;;7.97;4.37;;;18.20;99.90;;;;;;20989394;28;20441;-79
2021/07/03 16:42:48;;;;;;;6.30;3.97;;;18.20;99.90;;;;;;20985701;28;20052;-78
2021/07/03 16:52:48;;;;;;;13.20;4.07;;;18.10;99.90;;;;;;20969165;28;20140;-82
2021/07/03 17:02:49;;;;;;;6.03;3.97;;;17.90;99.90;;;;;;20996308;28;20071;-81
2021/07/03 17:12:51;;;;;;;7.27;4.10;;;17.90;99.90;;;;;;20999929;28;20040;-79
2021/07/03 17:22:52;;;;;;;9.57;3.20;;;18.00;99.90;;;;;;21022380;28;20139;-80
2021/07/03 17:32:53;;;;;;;6.87;3.20;;;17.60;99.90;;;;;;21023769;28;20032;-80
2021/07/03 17:42:53;;;;;;;5.27;3.10;;;17.60;99.90;;;;;;21021326;28;20098;-79
2021/07/03 17:52:55;;;;;;;4.37;2.93;;;17.40;99.90;;;;;;21022647;28;20408;-79
2021/07/03 18:02:56;;;;;;;;;;;17.30;99.90;;;;;;21002344;28;20418;-79
2021/07/03 18:12:57;;;;;;;6.73;3.90;;;17.40;99.90;;;;;;21067827;28;19951;-79
2021/07/03 18:22:58;;;;;;;7.10;4.60;;;17.40;99.90;;;;;;21065268;28;20282;-79
2021/07/03 18:32:59;;;;;;;5.27;3.90;;;17.30;99.90;;;;;;20981439;28;20029;-79
2021/07/03 18:43:00;;;;;;;8.30;4.17;;;17.30;99.90;;;;;;21001447;28;20040;-79
2021/07/03 18:53:01;;;;;;;7.40;4.23;;;17.10;99.90;;;;;;20992106;28;20033;-79
2021/07/03 19:03:03;;;;;;;8.73;4.57;;;17.10;99.90;;;;;;20962744;28;20537;-79
2021/07/03 19:13:05;;;;;;;7.68;4.63;;;17.00;99.90;;;;;;20980497;28;20037;-79
2021/07/03 19:23:10;;;;;;;7.30;4.68;;;16.90;99.90;;;;;;20973600;28;20036;-79
2021/07/03 19:33:11;;;;;;;9.07;4.50;;;16.90;99.90;;;;;;20991353;28;20323;-80
2021/07/03 19:43:12;;;;;;;5.50;4.03;;;17.10;99.90;;;;;;20975695;28;20062;-80
2021/07/03 19:53:12;;;;;;;6.57;4.40;;;17.10;99.90;;;;;;20994671;28;20329;-80
2021/07/03 20:03:13;;;;;;;8.07;5.40;;;16.70;99.90;;;;;;21005014;28;20055;-79
2021/07/03 20:13:14;;;;;;;8.93;5.07;;;16.80;99.90;;;;;;21018270;28;20059;-79
2021/07/03 20:23:15;;;;;;;9.67;5.60;;;16.90;99.90;;;;;;21020481;28;20028;-79
2021/07/03 20:33:19;;;;;;;8.70;4.50;;;16.90;99.90;;;;;;21005228;28;20292;-78
2021/07/03 20:43:24;;;;;;;8.07;4.05;;;16.80;99.90;;;;;;21003853;28;20021;-79
2021/07/03 20:53:24;;;;;;;7.15;4.28;;;16.90;99.90;;;;;;21012938;28;20048;-79
2021/07/03 21:03:25;;;;;;;9.67;5.07;;;16.80;99.90;;;;;;20987678;28;20066;-78
2021/07/03 21:13:27;;;;;;;12.57;6.30;;;16.70;99.90;;;;;;20987405;28;20264;-78
2021/07/03 21:23:28;;;;;;;7.60;4.50;;;16.60;99.90;;;;;;20993816;28;20093;-79
2021/07/03 21:33:29;;;;;;;7.13;4.10;;;16.60;99.90;;;;;;20980858;28;20303;-79
2021/07/03 21:43:30;;;;;;;9.23;4.30;;;16.70;99.90;;;;;;21007429;28;20036;-79
2021/07/03 21:53:30;;;;;;;8.53;5.33;;;16.70;99.90;;;;;;21006782;28;20059;-78
2021/07/03 22:03:31;;;;;;;9.03;5.27;;;16.60;99.90;;;;;;21007116;28;20021;-77
2021/07/03 22:13:32;;;;;;;8.23;5.10;;;16.50;99.90;;;;;;20994452;28;20036;-78
2021/07/03 22:23:35;;;;;;;7.53;5.77;;;16.50;99.90;;;;;;20988381;28;20025;-77
2021/07/03 22:33:36;;;;;;;9.60;5.60;;;16.60;99.90;;;;;;20995397;28;20024;-78
2021/07/03 22:43:37;;;;;;;9.43;6.50;;;16.50;99.90;;;;;;20996386;28;20028;-78
2021/07/03 22:53:37;;;;;;;9.57;6.37;;;16.30;99.90;;;;;;20990488;28;20025;-78
2021/07/03 23:03:38;;;;;;;13.67;7.93;;;16.30;99.90;;;;;;21000835;28;20029;-78
2021/07/03 23:13:39;;;;;;;14.50;8.83;;;16.30;99.90;;;;;;20981193;28;20033;-78
2021/07/03 23:23:40;;;;;;;12.97;9.30;;;16.20;99.90;;;;;;20978535;28;20694;-77
2021/07/03 23:33:41;;;;;;;14.70;8.87;;;16.10;99.90;;;;;;20989030;28;20066;-78
2021/07/03 23:43:42;;;;;;;12.03;8.03;;;16.10;99.90;;;;;;21009500;28;20025;-79
2021/07/03 23:53:43;;;;;;;16.50;7.60;;;16.10;99.90;;;;;;21005202;28;20112;-78
